createdAt,value
2023-04-26T00:00:39.646Z,23.81
2023-04-26T00:01:39.635Z,23.81
2023-04-26T00:02:39.704Z,23.80
2023-04-26T00:03:39.875Z,23.81
2023-04-26T00:04:39.828Z,23.81
2023-04-26T00:05:39.693Z,23.80
2023-04-26T00:06:39.674Z,23.80
2023-04-26T00:07:39.640Z,23.80
2023-04-26T00:08:39.645Z,23.80
2023-04-26T00:09:39.642Z,23.79
2023-04-26T00:10:39.672Z,23.80
2023-04-26T00:11:39.664Z,23.81
2023-04-26T00:12:39.653Z,23.79
2023-04-26T00:13:39.652Z,23.79
2023-04-26T00:14:39.706Z,23.79
2023-04-26T00:15:39.657Z,23.79
2023-04-26T00:16:39.743Z,23.80
2023-04-26T00:17:39.668Z,23.79
2023-04-26T00:18:39.656Z,23.79
2023-04-26T00:19:39.706Z,23.78
2023-04-26T00:20:39.738Z,23.79
2023-04-26T00:21:39.651Z,23.78
2023-04-26T00:22:39.679Z,23.78
2023-04-26T00:23:39.667Z,23.78
2023-04-26T00:24:39.788Z,23.78
2023-04-26T00:25:39.652Z,23.78
2023-04-26T00:26:39.653Z,23.77
2023-04-26T00:27:39.682Z,23.78
2023-04-26T00:28:39.627Z,23.78
2023-04-26T00:29:39.672Z,23.77
2023-04-26T00:30:39.649Z,23.78
2023-04-26T00:31:39.682Z,23.77
2023-04-26T00:32:39.700Z,23.78
2023-04-26T00:33:39.659Z,23.78
2023-04-26T00:34:39.684Z,23.77
2023-04-26T00:35:39.676Z,23.77
2023-04-26T00:36:39.683Z,23.77
2023-04-26T00:37:39.670Z,23.77
2023-04-26T00:38:39.644Z,23.77
2023-04-26T00:39:39.650Z,23.76
2023-04-26T00:40:39.668Z,23.76
2023-04-26T00:41:39.660Z,23.77
2023-04-26T00:42:39.662Z,23.77
2023-04-26T00:43:39.681Z,23.77
2023-04-26T00:44:39.665Z,23.77
2023-04-26T00:45:39.726Z,23.76
2023-04-26T00:46:39.661Z,23.76
2023-04-26T00:47:39.703Z,23.76
2023-04-26T00:48:39.666Z,23.76
2023-04-26T00:49:39.705Z,23.75
2023-04-26T00:50:39.749Z,23.75
2023-04-26T00:51:39.711Z,23.75
2023-04-26T00:52:39.717Z,23.75
2023-04-26T00:53:39.736Z,23.75
2023-04-26T00:54:39.741Z,23.75
2023-04-26T00:55:39.776Z,23.75
2023-04-26T00:56:39.722Z,23.74
2023-04-26T00:57:39.761Z,23.75
2023-04-26T00:58:39.776Z,23.75
2023-04-26T00:59:39.785Z,23.74
2023-04-26T01:00:39.755Z,23.75
2023-04-26T01:01:39.861Z,23.75
2023-04-26T01:02:39.876Z,23.74
2023-04-26T01:03:39.932Z,23.74
2023-04-26T01:04:39.780Z,23.75
2023-04-26T01:05:39.758Z,23.75
2023-04-26T01:06:39.748Z,23.73
2023-04-26T01:07:39.778Z,23.74
2023-04-26T01:08:39.795Z,23.74
2023-04-26T01:09:39.781Z,23.73
2023-04-26T01:10:39.757Z,23.74
2023-04-26T01:11:39.768Z,23.73
2023-04-26T01:12:39.755Z,23.74
2023-04-26T01:13:39.790Z,23.73
2023-04-26T01:14:39.784Z,23.74
2023-04-26T01:15:39.792Z,23.73
2023-04-26T01:16:39.850Z,23.73
2023-04-26T01:17:39.839Z,23.73
2023-04-26T01:18:39.787Z,23.73
2023-04-26T01:19:39.770Z,23.72
2023-04-26T01:20:39.770Z,23.73
2023-04-26T01:21:39.764Z,23.73
2023-04-26T01:22:39.786Z,23.72
2023-04-26T01:23:39.828Z,23.72
2023-04-26T01:24:39.789Z,23.73
2023-04-26T01:25:39.792Z,23.73
2023-04-26T01:26:39.773Z,23.72
2023-04-26T01:27:39.809Z,23.72
2023-04-26T01:28:39.797Z,23.71
2023-04-26T01:29:39.782Z,23.72
2023-04-26T01:30:39.803Z,23.72
2023-04-26T01:31:39.804Z,23.72
2023-04-26T01:32:39.922Z,23.71
2023-04-26T01:33:39.806Z,23.72
2023-04-26T01:34:39.796Z,23.71
2023-04-26T01:35:39.836Z,23.71
2023-04-26T01:36:39.795Z,23.72
2023-04-26T01:37:39.765Z,23.71
2023-04-26T01:38:39.776Z,23.71
2023-04-26T01:39:39.824Z,23.71
2023-04-26T01:40:39.824Z,23.71
2023-04-26T01:41:39.787Z,23.71
2023-04-26T01:42:39.802Z,23.71
2023-04-26T01:43:39.804Z,23.71
2023-04-26T01:44:39.821Z,23.71
2023-04-26T01:45:39.816Z,23.71
2023-04-26T01:46:39.886Z,23.71
2023-04-26T01:47:39.846Z,23.71
2023-04-26T01:48:39.801Z,23.71
2023-04-26T01:49:39.829Z,23.70
2023-04-26T01:50:39.839Z,23.70
2023-04-26T01:51:39.840Z,23.70
2023-04-26T01:52:39.879Z,23.69
2023-04-26T01:53:39.853Z,23.70
2023-04-26T01:54:39.854Z,23.70
2023-04-26T01:55:39.887Z,23.70
2023-04-26T01:56:39.852Z,23.70
2023-04-26T01:57:39.886Z,23.70
2023-04-26T01:58:39.876Z,23.70
2023-04-26T01:59:39.881Z,23.69
2023-04-26T02:00:39.897Z,23.69
2023-04-26T02:01:39.946Z,23.69
2023-04-26T02:02:40.117Z,23.69
2023-04-26T02:03:40.018Z,23.69
2023-04-26T02:04:39.932Z,23.69
2023-04-26T02:05:39.944Z,23.69
2023-04-26T02:06:39.941Z,23.69
2023-04-26T02:07:39.964Z,23.68
2023-04-26T02:08:39.935Z,23.69
2023-04-26T02:09:39.956Z,23.69
2023-04-26T02:10:39.986Z,23.69
2023-04-26T02:11:39.947Z,23.68
2023-04-26T02:12:39.981Z,23.68
2023-04-26T02:13:40.004Z,23.68
2023-04-26T02:14:40.002Z,23.68
2023-04-26T02:15:40.068Z,23.68
2023-04-26T02:16:40.088Z,23.68
2023-04-26T02:17:40.095Z,23.68
2023-04-26T02:18:40.006Z,23.68
2023-04-26T02:19:40.051Z,23.68
2023-04-26T02:20:40.053Z,23.68
2023-04-26T02:21:40.023Z,23.67
2023-04-26T02:22:40.053Z,23.67
2023-04-26T02:23:40.047Z,23.68
2023-04-26T02:24:40.075Z,23.67
2023-04-26T02:25:40.089Z,23.67
2023-04-26T02:26:40.033Z,23.67
2023-04-26T02:27:40.108Z,23.67
2023-04-26T02:28:40.067Z,23.67
2023-04-26T02:29:43.779Z,23.67
2023-04-26T02:30:40.112Z,23.66
2023-04-26T02:31:40.141Z,23.66
2023-04-26T02:32:40.106Z,23.66
2023-04-26T02:33:40.142Z,23.66
2023-04-26T02:34:40.074Z,23.66
2023-04-26T02:35:40.071Z,23.66
2023-04-26T02:36:40.064Z,23.66
2023-04-26T02:37:40.056Z,23.65
2023-04-26T02:38:40.073Z,23.66
2023-04-26T02:39:40.055Z,23.66
2023-04-26T02:40:40.052Z,23.66
2023-04-26T02:41:40.022Z,23.66
2023-04-26T02:42:40.024Z,23.66
2023-04-26T02:43:40.036Z,23.66
2023-04-26T02:44:40.190Z,23.65
2023-04-26T02:45:40.017Z,23.65
2023-04-26T02:46:40.060Z,23.65
2023-04-26T02:47:40.127Z,23.65
2023-04-26T02:48:39.991Z,23.65
2023-04-26T02:49:39.986Z,23.65
2023-04-26T02:50:40.014Z,23.65
2023-04-26T02:51:39.967Z,23.65
2023-04-26T02:52:39.984Z,23.65
2023-04-26T02:53:39.953Z,23.65
2023-04-26T02:54:39.958Z,23.65
2023-04-26T02:55:39.947Z,23.65
2023-04-26T02:56:39.921Z,23.65
2023-04-26T02:57:39.915Z,23.65
2023-04-26T02:58:39.925Z,23.65
2023-04-26T02:59:39.917Z,23.64
2023-04-26T03:00:39.996Z,23.64
2023-04-26T03:01:39.967Z,23.64
2023-04-26T03:02:40.023Z,23.64
2023-04-26T03:03:39.922Z,23.64
2023-04-26T03:04:39.878Z,23.64
2023-04-26T03:05:39.858Z,23.64
2023-04-26T03:06:39.875Z,23.64
2023-04-26T03:07:39.878Z,23.64
2023-04-26T03:08:39.875Z,23.64
2023-04-26T03:09:39.833Z,23.63
2023-04-26T03:10:39.844Z,23.63
2023-04-26T03:11:39.849Z,23.63
2023-04-26T03:12:39.831Z,23.63
2023-04-26T03:13:39.812Z,23.63
2023-04-26T03:14:39.794Z,23.63
2023-04-26T03:15:39.792Z,23.63
2023-04-26T03:16:39.797Z,23.63
2023-04-26T03:17:39.798Z,23.63
2023-04-26T03:18:39.774Z,23.63
2023-04-26T03:19:39.760Z,23.63
2023-04-26T03:20:39.818Z,23.62
2023-04-26T03:21:39.798Z,23.62
2023-04-26T03:22:39.785Z,23.63
2023-04-26T03:23:39.815Z,23.62
2023-04-26T03:24:39.794Z,23.63
2023-04-26T03:25:39.806Z,23.63
2023-04-26T03:26:39.823Z,23.62
2023-04-26T03:27:39.924Z,23.62
2023-04-26T03:28:39.850Z,23.62
2023-04-26T03:29:40.620Z,23.62
2023-04-26T03:30:39.885Z,23.62
2023-04-26T03:31:39.937Z,23.62
2023-04-26T03:32:39.955Z,23.61
2023-04-26T03:33:39.934Z,23.62
2023-04-26T03:34:39.940Z,23.62
2023-04-26T03:35:39.956Z,23.62
2023-04-26T03:36:40.007Z,23.62
2023-04-26T03:37:40.105Z,23.61
2023-04-26T03:38:40.011Z,23.62
2023-04-26T03:39:40.061Z,23.61
2023-04-26T03:40:40.073Z,23.61
2023-04-26T03:41:40.082Z,23.60
2023-04-26T03:42:40.092Z,23.61
2023-04-26T03:43:40.152Z,23.60
2023-04-26T03:44:40.153Z,23.61
2023-04-26T03:45:40.226Z,23.60
2023-04-26T03:46:40.182Z,23.61
2023-04-26T03:47:40.241Z,23.61
2023-04-26T03:48:40.227Z,23.60
2023-04-26T03:49:40.263Z,23.60
2023-04-26T03:50:40.255Z,23.60
2023-04-26T03:51:40.284Z,23.60
2023-04-26T03:52:40.290Z,23.60
2023-04-26T03:53:40.317Z,23.59
2023-04-26T03:54:40.330Z,23.59
2023-04-26T03:55:40.365Z,23.60
2023-04-26T03:56:40.358Z,23.60
2023-04-26T03:57:40.480Z,23.60
2023-04-26T03:58:40.427Z,23.60
2023-04-26T03:59:40.417Z,23.60
2023-04-26T04:00:40.464Z,23.59
2023-04-26T04:01:40.473Z,23.60
2023-04-26T04:02:40.594Z,23.59
2023-04-26T04:03:41.560Z,23.60
2023-04-26T04:04:40.782Z,23.60
2023-04-26T04:05:40.728Z,23.60
2023-04-26T04:06:40.574Z,23.59
2023-04-26T04:07:40.604Z,23.59
2023-04-26T04:08:40.614Z,23.59
2023-04-26T04:09:40.613Z,23.59
2023-04-26T04:10:40.618Z,23.60
2023-04-26T04:11:40.652Z,23.59
2023-04-26T04:12:40.689Z,23.59
2023-04-26T04:13:40.674Z,23.59
2023-04-26T04:14:40.695Z,23.59
2023-04-26T04:15:40.742Z,23.59
2023-04-26T04:16:40.741Z,23.59
2023-04-26T04:17:40.831Z,23.59
2023-04-26T04:18:40.739Z,23.59
2023-04-26T04:19:40.763Z,23.59
2023-04-26T04:20:40.813Z,23.58
2023-04-26T04:21:40.798Z,23.59
2023-04-26T04:22:40.808Z,23.59
2023-04-26T04:23:40.833Z,23.58
2023-04-26T04:24:41.877Z,23.59
2023-04-26T04:25:40.893Z,23.59
2023-04-26T04:26:40.906Z,23.57
2023-04-26T04:27:40.917Z,23.58
2023-04-26T04:28:40.927Z,23.58
2023-04-26T04:29:40.981Z,23.58
2023-04-26T04:30:40.975Z,23.58
2023-04-26T04:31:41.066Z,23.58
2023-04-26T04:32:41.005Z,23.58
2023-04-26T04:33:41.018Z,23.58
2023-04-26T04:34:41.036Z,23.58
2023-04-26T04:35:41.080Z,23.58
2023-04-26T04:36:41.078Z,23.58
2023-04-26T04:37:41.097Z,23.58
2023-04-26T04:38:41.057Z,23.58
2023-04-26T04:39:41.085Z,23.58
2023-04-26T04:40:41.145Z,23.58
2023-04-26T04:41:41.103Z,23.58
2023-04-26T04:42:41.157Z,23.58
2023-04-26T04:43:41.161Z,23.59
2023-04-26T04:44:41.184Z,23.58
2023-04-26T04:45:41.237Z,23.58
2023-04-26T04:46:41.302Z,23.58
2023-04-26T04:47:41.394Z,23.58
2023-04-26T04:48:41.269Z,23.58
2023-04-26T04:49:41.313Z,23.58
2023-04-26T04:50:41.317Z,23.58
2023-04-26T04:51:41.318Z,23.58
2023-04-26T04:52:41.360Z,23.58
2023-04-26T04:53:41.346Z,23.58
2023-04-26T04:54:41.374Z,23.58
2023-04-26T04:55:41.544Z,23.59
2023-04-26T04:56:41.465Z,23.58
2023-04-26T04:57:42.927Z,23.58
2023-04-26T04:58:41.496Z,23.58
2023-04-26T04:59:41.501Z,23.58
2023-04-26T05:00:41.546Z,23.59
2023-04-26T05:01:41.546Z,23.58
2023-04-26T05:02:41.652Z,23.59
2023-04-26T05:03:41.683Z,23.58
2023-04-26T05:04:41.743Z,23.59
2023-04-26T05:05:41.612Z,23.59
2023-04-26T05:06:41.636Z,23.59
2023-04-26T05:07:42.370Z,23.59
2023-04-26T05:08:41.644Z,23.59
2023-04-26T05:09:41.680Z,23.59
2023-04-26T05:10:41.712Z,23.59
2023-04-26T05:11:41.686Z,23.60
2023-04-26T05:12:41.704Z,23.59
2023-04-26T05:13:41.709Z,23.60
2023-04-26T05:14:41.757Z,23.60
2023-04-26T05:15:41.766Z,23.60
2023-04-26T05:16:41.830Z,23.60
2023-04-26T05:17:41.829Z,23.61
2023-04-26T05:18:41.762Z,23.61
2023-04-26T05:19:41.829Z,23.61
2023-04-26T05:20:41.831Z,23.62
2023-04-26T05:21:41.856Z,23.62
2023-04-26T05:22:41.864Z,23.62
2023-04-26T05:23:41.850Z,23.62
2023-04-26T05:24:41.850Z,23.62
2023-04-26T05:25:41.873Z,23.62
2023-04-26T05:26:41.934Z,23.62
2023-04-26T05:27:41.927Z,23.62
2023-04-26T05:28:41.941Z,23.62
2023-04-26T05:29:41.994Z,23.63
2023-04-26T05:30:41.997Z,23.62
2023-04-26T05:31:42.006Z,23.62
2023-04-26T05:32:42.034Z,23.62
2023-04-26T05:33:42.023Z,23.62
2023-04-26T05:34:42.076Z,23.62
2023-04-26T05:35:42.049Z,23.62
2023-04-26T05:36:42.931Z,23.63
2023-04-26T05:37:42.095Z,23.63
2023-04-26T05:38:42.097Z,23.63
2023-04-26T05:39:42.097Z,23.62
2023-04-26T05:40:42.408Z,23.63
2023-04-26T05:41:42.125Z,23.64
2023-04-26T05:42:42.112Z,23.65
2023-04-26T05:43:42.152Z,23.66
2023-04-26T05:44:42.155Z,23.67
2023-04-26T05:45:42.430Z,23.68
2023-04-26T05:46:42.184Z,23.71
2023-04-26T05:47:42.218Z,23.73
2023-04-26T05:48:42.190Z,23.75
2023-04-26T05:49:42.189Z,23.77
2023-04-26T05:50:42.412Z,23.79
2023-04-26T05:51:42.195Z,23.82
2023-04-26T05:52:42.220Z,23.83
2023-04-26T05:53:42.169Z,23.85
2023-04-26T05:54:42.183Z,23.87
2023-04-26T05:55:42.398Z,23.88
2023-04-26T05:56:42.146Z,23.89
2023-04-26T05:57:42.239Z,23.90
2023-04-26T05:58:42.180Z,23.91
2023-04-26T05:59:42.172Z,23.92
2023-04-26T06:00:42.422Z,23.93
2023-04-26T06:01:42.216Z,23.95
2023-04-26T06:02:42.406Z,23.97
2023-04-26T06:03:42.423Z,23.99
2023-04-26T06:04:42.454Z,24.01
2023-04-26T06:05:42.434Z,24.02
2023-04-26T06:06:42.418Z,24.04
2023-04-26T06:07:42.428Z,24.06
2023-04-26T06:08:42.520Z,24.07
2023-04-26T06:09:42.535Z,24.09
2023-04-26T06:10:42.596Z,24.10
2023-04-26T06:11:42.661Z,24.12
2023-04-26T06:12:42.714Z,24.14
2023-04-26T06:13:42.781Z,24.16
2023-04-26T06:14:42.831Z,24.17
2023-04-26T06:15:42.926Z,24.20
2023-04-26T06:16:43.881Z,24.22
2023-04-26T06:17:43.103Z,24.24
2023-04-26T06:18:43.100Z,24.26
2023-04-26T06:19:43.133Z,24.28
2023-04-26T06:20:43.193Z,24.30
2023-04-26T06:21:43.205Z,24.32
2023-04-26T06:22:43.247Z,24.34
2023-04-26T06:23:43.891Z,24.35
2023-04-26T06:24:43.314Z,24.37
2023-04-26T06:25:43.360Z,24.38
2023-04-26T06:26:43.418Z,24.40
2023-04-26T06:27:43.441Z,24.41
2023-04-26T06:28:43.506Z,24.43
2023-04-26T06:29:43.508Z,24.45
2023-04-26T06:30:43.572Z,24.46
2023-04-26T06:31:43.557Z,24.47
2023-04-26T06:32:43.615Z,24.49
2023-04-26T06:33:43.621Z,24.50
2023-04-26T06:34:43.685Z,24.52
2023-04-26T06:35:43.681Z,24.53
2023-04-26T06:36:43.677Z,24.54
2023-04-26T06:37:43.732Z,24.56
2023-04-26T06:38:43.748Z,24.57
2023-04-26T06:39:43.817Z,24.57
2023-04-26T06:40:43.839Z,24.59
2023-04-26T06:41:43.840Z,24.60
2023-04-26T06:42:43.838Z,24.61
2023-04-26T06:43:43.838Z,24.63
2023-04-26T06:44:43.888Z,24.65
2023-04-26T06:45:45.430Z,24.65
2023-04-26T06:46:43.965Z,24.66
2023-04-26T06:47:44.053Z,24.67
2023-04-26T06:48:43.980Z,24.67
2023-04-26T06:49:44.005Z,24.68
2023-04-26T06:50:44.012Z,24.69
2023-04-26T06:51:44.019Z,24.70
2023-04-26T06:52:44.055Z,24.72
2023-04-26T06:53:44.060Z,24.73
2023-04-26T06:54:55.972Z,24.75
2023-04-26T06:55:45.105Z,24.77
2023-04-26T06:56:44.080Z,24.80
2023-04-26T06:57:44.051Z,24.82
2023-04-26T06:58:44.030Z,24.85
2023-04-26T06:59:44.045Z,24.87
2023-04-26T07:00:44.060Z,24.88
2023-04-26T07:01:44.007Z,24.95
2023-04-26T07:02:44.127Z,25.06
2023-04-26T07:03:44.181Z,25.17
2023-04-26T07:04:44.218Z,25.28
2023-04-26T07:05:44.411Z,25.39
2023-04-26T07:06:43.986Z,25.51
2023-04-26T07:07:44.014Z,25.61
2023-04-26T07:08:43.984Z,25.67
2023-04-26T07:09:43.974Z,25.69
2023-04-26T07:10:43.990Z,25.72
2023-04-26T07:11:43.990Z,25.72
2023-04-26T07:12:43.961Z,25.72
2023-04-26T07:13:44.040Z,25.74
2023-04-26T07:14:44.062Z,25.76
2023-04-26T07:15:44.471Z,25.80
2023-04-26T07:16:44.506Z,25.82
2023-04-26T07:17:44.221Z,25.85
2023-04-26T07:18:44.243Z,25.87
2023-04-26T07:19:44.258Z,25.89
2023-04-26T07:20:51.499Z,25.92
2023-04-26T07:21:44.237Z,25.93
2023-04-26T07:22:44.224Z,25.97
2023-04-26T07:23:44.308Z,26.01
2023-04-26T07:24:44.196Z,26.04
2023-04-26T07:25:44.227Z,26.05
2023-04-26T07:26:44.218Z,26.04
2023-04-26T07:27:44.209Z,26.02
2023-04-26T07:28:44.220Z,26.01
2023-04-26T07:29:44.180Z,26.00
2023-04-26T07:30:44.196Z,25.98
2023-04-26T07:31:44.202Z,25.96
2023-04-26T07:32:44.280Z,25.96
2023-04-26T07:33:44.243Z,25.98
2023-04-26T07:34:44.162Z,26.04
2023-04-26T07:35:44.480Z,26.07
2023-04-26T07:36:44.123Z,26.11
2023-04-26T07:37:44.165Z,26.14
2023-04-26T07:38:44.132Z,26.13
2023-04-26T07:39:44.166Z,26.12
2023-04-26T07:40:44.513Z,26.10
2023-04-26T07:41:44.311Z,26.08
2023-04-26T07:42:44.129Z,26.06
2023-04-26T07:43:44.123Z,25.99
2023-04-26T07:44:44.088Z,25.94
2023-04-26T07:45:44.160Z,25.90
2023-04-26T07:46:45.198Z,25.86
2023-04-26T07:47:44.132Z,25.81
2023-04-26T07:48:44.064Z,25.77
2023-04-26T07:49:45.705Z,25.72
2023-04-26T07:50:51.971Z,25.68
2023-04-26T07:51:44.046Z,25.63
2023-04-26T07:52:44.049Z,25.60
2023-04-26T07:53:44.026Z,25.56
2023-04-26T07:54:44.043Z,25.53
2023-04-26T07:55:44.995Z,25.50
2023-04-26T07:56:43.999Z,25.48
2023-04-26T07:57:43.975Z,25.44
2023-04-26T07:58:44.002Z,25.42
2023-04-26T07:59:44.127Z,25.40
2023-04-26T08:00:44.100Z,25.38
2023-04-26T08:01:44.183Z,25.36
2023-04-26T08:02:45.531Z,25.32
2023-04-26T08:03:44.412Z,25.31
2023-04-26T08:04:44.436Z,25.30
2023-04-26T08:05:44.530Z,25.28
2023-04-26T08:06:44.404Z,25.25
2023-04-26T08:07:44.422Z,25.23
2023-04-26T08:08:44.537Z,25.21
2023-04-26T08:09:44.467Z,25.19
2023-04-26T08:10:44.515Z,25.19
2023-04-26T08:11:44.560Z,25.17
2023-04-26T08:12:44.486Z,25.17
2023-04-26T08:13:44.494Z,25.17
2023-04-26T08:14:44.510Z,25.16
2023-04-26T08:15:44.650Z,25.15
2023-04-26T08:16:44.564Z,25.14
2023-04-26T08:17:44.546Z,25.14
2023-04-26T08:18:46.821Z,25.12
2023-04-26T08:19:44.566Z,25.12
2023-04-26T08:20:44.582Z,25.11
2023-04-26T08:21:44.613Z,25.11
2023-04-26T08:22:44.598Z,25.10
2023-04-26T08:23:44.599Z,25.09
2023-04-26T08:24:44.578Z,25.08
2023-04-26T08:25:46.011Z,25.07
2023-04-26T08:26:44.578Z,25.07
2023-04-26T08:27:44.610Z,25.06
2023-04-26T08:28:44.557Z,25.06
2023-04-26T08:29:44.587Z,25.05
2023-04-26T08:30:44.675Z,25.05
2023-04-26T08:31:44.557Z,25.04
2023-04-26T08:32:44.640Z,25.03
2023-04-26T08:33:44.560Z,25.02
2023-04-26T08:34:44.542Z,25.02
2023-04-26T08:35:44.999Z,25.02
2023-04-26T08:36:44.556Z,25.00
2023-04-26T08:37:44.522Z,24.99
2023-04-26T08:38:44.540Z,24.99
2023-04-26T08:39:44.522Z,25.00
2023-04-26T08:40:44.979Z,25.01
2023-04-26T08:41:44.516Z,25.02
2023-04-26T08:42:44.551Z,25.02
2023-04-26T08:43:44.511Z,25.02
2023-04-26T08:44:44.490Z,25.04
2023-04-26T08:45:44.531Z,25.06
2023-04-26T08:46:44.557Z,25.07
2023-04-26T08:47:44.508Z,25.08
2023-04-26T08:48:44.512Z,25.10
2023-04-26T08:49:44.449Z,25.11
2023-04-26T08:50:44.514Z,25.13
2023-04-26T08:51:44.460Z,25.15
2023-04-26T08:52:44.464Z,25.17
2023-04-26T08:53:44.469Z,25.17
2023-04-26T08:54:44.427Z,25.17
2023-04-26T08:55:44.416Z,25.18
2023-04-26T08:56:44.399Z,25.19
2023-04-26T08:57:44.417Z,25.19
2023-04-26T08:58:44.397Z,25.18
2023-04-26T08:59:44.386Z,25.18
2023-04-26T09:00:44.400Z,25.18
2023-04-26T09:01:44.409Z,25.18
2023-04-26T09:02:44.453Z,25.16
2023-04-26T09:03:44.531Z,25.14
2023-04-26T09:04:44.489Z,25.13
2023-04-26T09:05:44.440Z,25.09
2023-04-26T09:06:44.317Z,25.07
2023-04-26T09:07:44.333Z,25.05
2023-04-26T09:08:44.324Z,25.02
2023-04-26T09:09:44.347Z,25.02
2023-04-26T09:10:44.307Z,25.00
2023-04-26T09:11:44.314Z,25.00
2023-04-26T09:12:44.283Z,24.97
2023-04-26T09:13:44.325Z,24.97
2023-04-26T09:14:44.276Z,24.95
2023-04-26T09:15:44.298Z,24.94
2023-04-26T09:16:44.462Z,24.92
2023-04-26T09:17:44.317Z,24.92
2023-04-26T09:18:44.263Z,24.91
2023-04-26T09:19:44.250Z,24.92
2023-04-26T09:20:44.266Z,24.93
2023-04-26T09:21:44.234Z,24.92
2023-04-26T09:22:44.249Z,24.94
2023-04-26T09:23:44.194Z,24.94
2023-04-26T09:24:44.236Z,24.95
2023-04-26T09:25:44.215Z,24.96
2023-04-26T09:26:44.201Z,24.98
2023-04-26T09:27:44.210Z,24.99
2023-04-26T09:28:44.187Z,25.00
2023-04-26T09:29:44.204Z,25.01
2023-04-26T09:30:44.159Z,25.02
2023-04-26T09:31:45.747Z,25.04
2023-04-26T09:32:44.210Z,25.05
2023-04-26T09:33:44.163Z,25.06
2023-04-26T09:34:44.158Z,25.05
2023-04-26T09:35:44.163Z,25.04
2023-04-26T09:36:44.134Z,25.04
2023-04-26T09:37:57.286Z,25.02
2023-04-26T09:38:45.131Z,25.02
2023-04-26T09:39:44.122Z,25.00
2023-04-26T09:40:44.527Z,25.01
2023-04-26T09:41:44.090Z,25.01
2023-04-26T09:42:44.111Z,25.03
2023-04-26T09:43:44.093Z,25.05
2023-04-26T09:44:44.070Z,25.08
2023-04-26T09:45:44.529Z,25.11
2023-04-26T09:47:44.097Z,25.18
2023-04-26T09:48:44.590Z,25.20
2023-04-26T09:49:44.117Z,25.24
2023-04-26T09:50:44.202Z,25.26
2023-04-26T09:51:44.198Z,25.32
2023-04-26T09:52:44.226Z,25.36
2023-04-26T09:53:44.285Z,25.41
2023-04-26T09:54:44.332Z,25.45
2023-04-26T09:55:44.357Z,25.50
2023-04-26T09:56:44.417Z,25.55
2023-04-26T09:57:44.438Z,25.58
2023-04-26T09:58:44.493Z,25.59
2023-04-26T09:59:44.551Z,25.60
2023-04-26T10:00:44.629Z,25.62
2023-04-26T10:01:44.597Z,25.64
2023-04-26T10:02:44.758Z,25.64
2023-04-26T10:03:45.041Z,25.65
2023-04-26T10:04:44.732Z,25.63
2023-04-26T10:05:44.761Z,25.59
2023-04-26T10:06:44.785Z,25.58
2023-04-26T10:07:44.846Z,25.59
2023-04-26T10:08:44.878Z,25.59
2023-04-26T10:09:44.935Z,25.59
2023-04-26T10:10:44.927Z,25.57
2023-04-26T10:11:44.977Z,25.55
2023-04-26T10:12:45.043Z,25.57
2023-04-26T10:13:45.083Z,25.59
2023-04-26T10:14:45.129Z,25.63
2023-04-26T10:15:45.194Z,25.67
2023-04-26T10:16:45.277Z,25.69
2023-04-26T10:17:45.255Z,25.71
2023-04-26T10:18:45.266Z,25.74
2023-04-26T10:19:45.336Z,25.78
2023-04-26T10:20:45.375Z,25.82
2023-04-26T10:21:45.350Z,25.85
2023-04-26T10:22:45.400Z,25.87
2023-04-26T10:23:45.427Z,25.90
2023-04-26T10:24:45.421Z,25.95
2023-04-26T10:25:45.462Z,25.98
2023-04-26T10:26:45.457Z,26.01
2023-04-26T10:27:45.478Z,26.04
2023-04-26T10:28:45.494Z,26.08
2023-04-26T10:29:45.469Z,26.13
2023-04-26T10:30:45.464Z,26.19
2023-04-26T10:31:45.476Z,26.22
2023-04-26T10:32:45.456Z,26.23
2023-04-26T10:33:45.459Z,26.23
2023-04-26T10:34:45.473Z,26.23
2023-04-26T10:35:45.481Z,26.22
2023-04-26T10:36:45.556Z,26.18
2023-04-26T10:37:45.468Z,26.16
2023-04-26T10:38:45.450Z,26.14
2023-04-26T10:39:45.489Z,26.11
2023-04-26T10:40:45.468Z,26.08
2023-04-26T10:41:45.492Z,26.06
2023-04-26T10:42:45.493Z,26.03
2023-04-26T10:43:45.509Z,26.00
2023-04-26T10:44:45.520Z,26.01
2023-04-26T10:45:45.526Z,26.05
2023-04-26T10:46:45.549Z,26.08
2023-04-26T10:47:45.556Z,26.11
2023-04-26T10:48:45.540Z,26.12
2023-04-26T10:49:45.575Z,26.12
2023-04-26T10:50:45.544Z,26.12
2023-04-26T10:51:45.554Z,26.13
2023-04-26T10:52:45.544Z,26.14
2023-04-26T10:53:45.541Z,26.15
2023-04-26T10:54:45.553Z,26.15
2023-04-26T10:55:45.627Z,26.15
2023-04-26T10:56:45.578Z,26.16
2023-04-26T10:57:45.577Z,26.16
2023-04-26T10:58:45.549Z,26.19
2023-04-26T10:59:54.292Z,26.19
2023-04-26T11:00:46.537Z,26.20
2023-04-26T11:01:45.657Z,26.21
2023-04-26T11:02:45.641Z,26.22
2023-04-26T11:03:45.575Z,26.23
2023-04-26T11:04:45.575Z,26.23
2023-04-26T11:05:45.500Z,26.25
2023-04-26T11:06:45.500Z,26.26
2023-04-26T11:07:45.495Z,26.26
2023-04-26T11:08:45.476Z,26.28
2023-04-26T11:09:45.478Z,26.26
2023-04-26T11:10:45.453Z,26.24
2023-04-26T11:11:45.533Z,26.20
2023-04-26T11:12:45.471Z,26.17
2023-04-26T11:13:45.447Z,26.11
2023-04-26T11:14:45.444Z,26.06
2023-04-26T11:15:45.471Z,26.05
2023-04-26T11:16:45.533Z,26.05
2023-04-26T11:17:45.425Z,26.05
2023-04-26T11:18:45.419Z,26.08
2023-04-26T11:19:45.400Z,26.10
2023-04-26T11:20:45.385Z,26.14
2023-04-26T11:21:45.421Z,26.17
2023-04-26T11:22:45.388Z,26.19
2023-04-26T11:23:45.388Z,26.24
2023-04-26T11:24:45.401Z,26.26
2023-04-26T11:25:45.369Z,26.28
2023-04-26T11:26:45.555Z,26.31
2023-04-26T11:27:46.085Z,26.33
2023-04-26T11:28:45.513Z,26.31
2023-04-26T11:29:45.556Z,26.32
2023-04-26T11:30:45.610Z,26.32
2023-04-26T11:31:46.113Z,26.31
2023-04-26T11:32:45.777Z,26.29
2023-04-26T11:33:46.451Z,26.28
2023-04-26T11:34:45.859Z,26.25
2023-04-26T11:35:45.890Z,26.23
2023-04-26T11:36:46.087Z,26.20
2023-04-26T11:37:45.976Z,26.18
2023-04-26T11:38:45.948Z,26.15
2023-04-26T11:39:45.970Z,26.12
2023-04-26T11:40:45.986Z,26.09
2023-04-26T11:41:45.948Z,26.07
2023-04-26T11:42:45.934Z,26.05
2023-04-26T11:43:46.036Z,26.03
2023-04-26T11:44:47.643Z,26.01
2023-04-26T11:45:45.939Z,25.99
2023-04-26T11:46:46.008Z,25.96
2023-04-26T11:47:46.003Z,25.96
2023-04-26T11:48:45.968Z,25.93
2023-04-26T11:49:46.005Z,25.90
2023-04-26T11:50:45.988Z,25.88
2023-04-26T11:51:46.068Z,25.85
2023-04-26T11:52:46.097Z,25.82
2023-04-26T11:53:46.080Z,25.79
2023-04-26T11:54:46.103Z,25.77
2023-04-26T11:55:46.168Z,25.75
2023-04-26T11:56:46.179Z,25.73
2023-04-26T11:57:46.207Z,25.73
2023-04-26T11:58:46.221Z,25.72
2023-04-26T11:59:46.383Z,25.71
2023-04-26T12:00:46.294Z,25.70
2023-04-26T12:01:46.314Z,25.70
2023-04-26T12:02:46.547Z,25.70
2023-04-26T12:03:46.542Z,25.70
2023-04-26T12:04:46.731Z,25.70
2023-04-26T12:05:46.458Z,25.70
2023-04-26T12:06:46.579Z,25.69
2023-04-26T12:07:46.534Z,25.69
2023-04-26T12:08:46.576Z,25.69
2023-04-26T12:09:53.636Z,25.69
2023-04-26T12:10:46.604Z,25.69
2023-04-26T12:11:46.583Z,25.69
2023-04-26T12:12:46.567Z,25.71
2023-04-26T12:13:46.566Z,25.70
2023-04-26T12:14:46.586Z,25.71
2023-04-26T12:15:46.682Z,25.71
2023-04-26T12:16:46.647Z,25.72
2023-04-26T12:17:46.577Z,25.72
2023-04-26T12:18:46.576Z,25.72
2023-04-26T12:19:46.534Z,25.72
2023-04-26T12:20:46.541Z,25.72
2023-04-26T12:21:46.552Z,25.72
2023-04-26T12:22:46.518Z,25.71
2023-04-26T12:23:46.508Z,25.71
2023-04-26T12:24:46.535Z,25.72
2023-04-26T12:25:46.503Z,25.72
2023-04-26T12:26:46.518Z,25.73
2023-04-26T12:27:46.501Z,25.74
2023-04-26T12:28:46.471Z,25.74
2023-04-26T12:29:46.506Z,25.74
2023-04-26T12:30:46.513Z,25.75
2023-04-26T12:31:46.775Z,25.75
2023-04-26T12:32:46.511Z,25.74
2023-04-26T12:33:46.452Z,25.73
2023-04-26T12:34:46.517Z,25.73
2023-04-26T12:35:46.453Z,25.72
2023-04-26T12:36:46.439Z,25.74
2023-04-26T12:37:46.490Z,25.75
2023-04-26T12:38:46.427Z,25.74
2023-04-26T12:39:46.398Z,25.74
2023-04-26T12:40:46.403Z,25.74
2023-04-26T12:41:46.420Z,25.75
2023-04-26T12:42:46.399Z,25.76
2023-04-26T12:43:46.396Z,25.75
2023-04-26T12:44:46.381Z,25.74
2023-04-26T12:45:46.456Z,25.75
2023-04-26T12:46:46.529Z,25.76
2023-04-26T12:47:46.523Z,25.76
2023-04-26T12:48:46.469Z,25.78
2023-04-26T12:49:46.511Z,25.79
2023-04-26T12:50:46.503Z,25.81
2023-04-26T12:51:46.556Z,25.82
2023-04-26T12:52:46.583Z,25.83
2023-04-26T12:53:46.575Z,25.84